createdAt,value
2018-04-30T00:00:00.715Z,14.59
2018-04-30T00:05:51.642Z,11.72
2018-04-30T00:11:42.537Z,7.55
2018-04-30T00:17:33.426Z,7.91
2018-04-30T00:23:24.266Z,9.72
2018-04-30T00:29:15.183Z,8
2018-04-30T00:35:06.071Z,4.18
2018-04-30T00:40:56.935Z,7.48
2018-04-30T00:46:47.831Z,5.4
2018-04-30T00:52:38.715Z,4.86
2018-04-30T00:58:29.573Z,11.11
2018-04-30T01:04:20.503Z,9.21
2018-04-30T01:10:11.392Z,9.73
2018-04-30T01:16:02.264Z,7.29
2018-04-30T01:21:53.171Z,8.93
2018-04-30T01:27:44.110Z,9.81
2018-04-30T01:33:34.969Z,6.12
2018-04-30T01:39:25.823Z,6.97
2018-04-30T01:45:16.739Z,7.28
2018-04-30T01:56:58.525Z,3.63
2018-04-30T02:02:49.380Z,9.06
2018-04-30T02:08:40.299Z,5.63
2018-04-30T02:15:09.604Z,3.62
2018-04-30T02:21:00.521Z,5.84
2018-04-30T02:32:42.269Z,4.67
2018-04-30T02:38:33.170Z,4.99
2018-04-30T02:44:24.092Z,7.8
2018-04-30T02:50:14.954Z,7.69
2018-04-30T02:56:05.798Z,6.72
2018-04-30T03:01:56.662Z,10.96
2018-04-30T03:13:38.467Z,9.41
2018-04-30T03:25:20.232Z,9.5
2018-04-30T03:40:09.285Z,11.32
2018-04-30T03:51:54.971Z,3.94
2018-04-30T03:57:45.252Z,9.69
2018-04-30T04:04:23.854Z,9.55
2018-04-30T04:10:14.055Z,15.14
2018-04-30T04:16:04.941Z,8.91
2018-04-30T04:21:55.852Z,7.84
2018-04-30T04:33:37.569Z,18.71
2018-04-30T04:39:28.455Z,58.89
2018-04-30T04:51:10.235Z,49.67
2018-04-30T04:57:01.109Z,48.1
2018-04-30T05:08:42.861Z,29.77
2018-04-30T05:14:33.760Z,29.65
2018-04-30T05:20:52.910Z,26.92
2018-04-30T05:26:43.761Z,35.93
2018-04-30T05:32:34.661Z,30.58
2018-04-30T05:38:25.512Z,38.86
2018-04-30T05:44:16.427Z,33.31
2018-04-30T05:52:33.480Z,21.12
2018-04-30T05:58:27.950Z,29.83
2018-04-30T06:04:15.244Z,16.94
2018-04-30T06:10:06.056Z,14.29
2018-04-30T06:21:47.844Z,11.77
2018-04-30T06:27:38.717Z,11.86
2018-04-30T06:33:29.589Z,12.53
2018-04-30T06:39:21.072Z,10.88
2018-04-30T06:45:11.379Z,18.77
2018-04-30T06:51:02.246Z,14.85
2018-04-30T06:56:53.094Z,17.02
2018-04-30T07:02:43.987Z,16.03
2018-04-30T07:08:34.932Z,20.65
2018-04-30T07:14:25.832Z,23.14
2018-04-30T07:20:16.652Z,18.4
2018-04-30T07:26:07.568Z,17.84
2018-04-30T07:31:58.440Z,18.96
2018-04-30T07:37:49.283Z,17.2
2018-04-30T07:43:40.215Z,12.29
2018-04-30T07:49:31.026Z,9.28
2018-04-30T07:55:21.942Z,9.2
2018-04-30T08:01:12.837Z,11.12
2018-04-30T08:07:03.735Z,16.2
2018-04-30T08:12:54.592Z,16.59
2018-04-30T08:18:45.465Z,23.49
2018-04-30T08:24:36.334Z,16.58
2018-04-30T08:30:27.218Z,14.92
2018-04-30T08:36:18.803Z,10.09
2018-04-30T08:42:09.066Z,11
2018-04-30T08:47:59.890Z,14.73
2018-04-30T08:53:50.773Z,17.14
2018-04-30T08:59:41.722Z,14.9
2018-04-30T09:05:32.520Z,9.06
2018-04-30T09:11:23.490Z,9.01
2018-04-30T09:17:14.350Z,15.7
2018-04-30T09:23:05.238Z,7.29
2018-04-30T09:28:56.100Z,10.21
2018-04-30T09:34:47.026Z,16.1
2018-04-30T09:40:37.842Z,17.94
2018-04-30T09:46:28.751Z,16.02
2018-04-30T09:52:19.679Z,16.98
2018-04-30T09:58:10.612Z,14.93
2018-04-30T10:04:01.458Z,16.55
2018-04-30T10:09:52.349Z,19.74
2018-04-30T10:15:43.191Z,14.24
2018-04-30T10:21:34.110Z,13.61
2018-04-30T10:27:24.988Z,11.74
2018-04-30T10:33:15.881Z,15.46
2018-04-30T10:39:06.764Z,17.69
2018-04-30T10:44:57.649Z,18.76
2018-04-30T10:50:48.557Z,16.78
2018-04-30T10:56:39.469Z,18.67
2018-04-30T11:02:30.353Z,16.53
2018-04-30T11:08:21.220Z,13.27
2018-04-30T11:14:12.184Z,15.74
2018-04-30T11:20:03.027Z,17.03
2018-04-30T11:25:53.969Z,22.61
2018-04-30T11:31:44.855Z,13.29
2018-04-30T11:37:35.772Z,17.37
2018-04-30T11:43:26.667Z,11
2018-04-30T11:49:17.565Z,12.82
2018-04-30T11:55:08.512Z,12.48
2018-04-30T12:00:59.381Z,12.66
2018-04-30T12:06:50.339Z,11.02
2018-04-30T12:12:41.210Z,12.41
2018-04-30T12:18:32.136Z,20.09
2018-04-30T12:24:23.780Z,19.15
2018-04-30T12:30:13.929Z,14.4
2018-04-30T12:36:04.861Z,13.57
2018-04-30T12:41:55.722Z,9.39
2018-04-30T12:47:46.658Z,12.01
2018-04-30T12:53:37.608Z,11.74
2018-04-30T12:59:28.507Z,9.74
2018-04-30T13:05:19.323Z,10.25
2018-04-30T13:11:10.246Z,11.66
2018-04-30T13:17:01.231Z,8.72
2018-04-30T13:22:52.081Z,10.55
2018-04-30T13:28:43.065Z,13.61
2018-04-30T13:34:33.931Z,10.13
2018-04-30T13:40:24.891Z,11.38
2018-04-30T13:46:15.812Z,14.97
2018-04-30T13:52:06.728Z,8.07
2018-04-30T13:57:57.622Z,7.31
2018-04-30T14:03:48.535Z,20.51
2018-04-30T14:09:39.486Z,26.21
2018-04-30T14:15:30.362Z,21.25
2018-04-30T14:21:21.328Z,22.4
2018-04-30T14:27:12.192Z,17.47
2018-04-30T14:33:03.132Z,25
2018-04-30T14:38:54.009Z,23.26
2018-04-30T14:44:44.935Z,31.78
2018-04-30T14:50:35.863Z,25.46
2018-04-30T14:56:26.799Z,22.05
2018-04-30T15:02:17.652Z,19.15
2018-04-30T15:08:08.577Z,18.73
2018-04-30T15:13:59.514Z,15.06
2018-04-30T15:19:50.412Z,13.46
2018-04-30T15:25:41.324Z,12.87
2018-04-30T15:31:32.238Z,14.9
2018-04-30T15:37:23.111Z,11.06
2018-04-30T15:43:14.043Z,14.81
2018-04-30T15:49:04.958Z,11.19
2018-04-30T15:54:55.853Z,17.39
2018-04-30T16:00:46.738Z,21.6
2018-04-30T16:06:37.696Z,12.84
2018-04-30T16:12:28.591Z,10.52
2018-04-30T16:18:19.535Z,9.43
2018-04-30T16:24:10.395Z,7.31
2018-04-30T16:30:01.322Z,7.72
2018-04-30T16:35:52.242Z,9.55
2018-04-30T16:41:43.141Z,8.55
2018-04-30T16:47:34.038Z,8.34
2018-04-30T16:53:24.966Z,9.88
2018-04-30T16:59:15.805Z,10.04
2018-04-30T17:05:06.747Z,8.27
2018-04-30T17:10:57.645Z,7.05
2018-04-30T17:16:48.575Z,6.84
2018-04-30T17:22:39.435Z,10.49
2018-04-30T17:28:30.333Z,10.18
2018-04-30T17:34:21.284Z,11.55
2018-04-30T17:40:12.102Z,8.24
2018-04-30T17:46:03.004Z,6.97
2018-04-30T17:51:53.967Z,11.15
2018-04-30T17:57:44.831Z,6.86
2018-04-30T18:03:35.747Z,10.98
2018-04-30T18:09:26.661Z,10.92
2018-04-30T18:15:17.513Z,8.83
2018-04-30T18:21:08.376Z,10.35
2018-04-30T18:26:59.274Z,10.17
2018-04-30T18:32:50.186Z,12.65
2018-04-30T18:38:41.108Z,9.23
2018-04-30T18:44:31.955Z,6.74
2018-04-30T18:50:22.882Z,12.07
2018-04-30T18:56:13.770Z,10.96
2018-04-30T19:02:04.602Z,10.75
2018-04-30T19:07:55.536Z,11.13
2018-04-30T19:13:46.409Z,7.75
2018-04-30T19:19:37.295Z,10.17
2018-04-30T19:25:28.254Z,10.21
2018-04-30T19:31:19.054Z,12.42
2018-04-30T19:37:10.039Z,10.93
2018-04-30T19:43:00.869Z,10.9
2018-04-30T19:48:51.757Z,9.07
2018-04-30T19:54:42.666Z,9.69
2018-04-30T20:00:33.569Z,13.04
2018-04-30T20:06:24.466Z,8.37
2018-04-30T20:12:15.312Z,7.99
2018-04-30T20:18:06.220Z,7.07
2018-04-30T20:23:57.065Z,11.59
2018-04-30T20:29:48.010Z,7.14
2018-04-30T20:35:38.841Z,9.13
2018-04-30T20:41:29.730Z,11.3
2018-04-30T20:47:20.633Z,13.4
2018-04-30T20:53:11.553Z,11.87
2018-04-30T20:59:02.381Z,13.39
2018-04-30T21:04:53.258Z,13.7
2018-04-30T21:10:44.162Z,10.63
2018-04-30T21:16:35.062Z,14.91
2018-04-30T21:22:25.915Z,9.3
2018-04-30T21:28:16.844Z,14.12
2018-04-30T21:34:07.756Z,11.33
2018-04-30T21:39:58.590Z,11.06
2018-04-30T21:45:49.473Z,11.46
2018-04-30T21:51:40.382Z,13.81
2018-04-30T21:57:31.211Z,7.16
2018-04-30T22:03:22.118Z,9.84
2018-04-30T22:09:12.982Z,10.02
2018-04-30T22:15:03.875Z,9.36
2018-04-30T22:20:54.779Z,10
2018-04-30T22:26:45.743Z,8.61
2018-04-30T22:32:36.584Z,5.56
2018-04-30T22:38:27.419Z,10.61
2018-04-30T22:44:18.325Z,7.06
2018-04-30T22:50:09.210Z,9.52
2018-04-30T22:56:00.088Z,8.87
2018-04-30T23:01:50.931Z,8.28
2018-04-30T23:07:41.863Z,12.36
2018-04-30T23:13:32.713Z,19.02
2018-04-30T23:19:23.577Z,14.23
2018-04-30T23:25:14.460Z,13.06
2018-04-30T23:31:05.360Z,14.91
2018-04-30T23:36:56.250Z,15.39
2018-04-30T23:42:47.108Z,5.75
2018-04-30T23:48:37.996Z,10.89
2018-04-30T23:54:28.865Z,12.05
